createdAt,value
2017-04-28T00:00:41.668Z,4.80
2017-04-28T00:03:08.736Z,4.80
2017-04-28T00:05:35.813Z,4.80
2017-04-28T00:08:02.989Z,4.80
2017-04-28T00:10:30.056Z,4.90
2017-04-28T00:12:57.105Z,4.80
2017-04-28T00:15:24.204Z,4.80
2017-04-28T00:17:51.298Z,4.70
2017-04-28T00:20:18.348Z,4.80
2017-04-28T00:22:45.455Z,4.80
2017-04-28T00:25:12.553Z,4.70
2017-04-28T00:27:39.684Z,4.60
2017-04-28T00:30:06.732Z,4.60
2017-04-28T00:32:33.782Z,4.60
2017-04-28T00:35:00.851Z,4.60
2017-04-28T00:37:27.949Z,4.50
2017-04-28T00:39:55.037Z,4.50
2017-04-28T00:42:22.096Z,4.50
2017-04-28T00:44:49.187Z,4.60
2017-04-28T00:47:16.231Z,4.70
2017-04-28T00:49:43.308Z,4.60
2017-04-28T00:52:10.337Z,4.60
2017-04-28T00:54:37.429Z,4.60
2017-04-28T00:57:04.495Z,4.50
2017-04-28T00:59:32.335Z,4.50
2017-04-28T01:01:59.603Z,4.40
2017-04-28T01:04:26.653Z,4.50
2017-04-28T01:06:53.748Z,4.50
2017-04-28T01:09:20.865Z,4.50
2017-04-28T01:11:47.975Z,4.50
2017-04-28T01:14:15.047Z,4.50
2017-04-28T01:16:42.129Z,4.60
2017-04-28T01:19:09.177Z,4.60
2017-04-28T01:21:36.229Z,4.60
2017-04-28T01:24:03.307Z,4.70
2017-04-28T01:26:31.174Z,4.60
2017-04-28T01:28:59.080Z,4.60
2017-04-28T01:31:26.187Z,4.70
2017-04-28T01:33:53.219Z,4.70
2017-04-28T01:36:20.358Z,4.60
2017-04-28T01:38:47.427Z,4.50
2017-04-28T01:41:14.499Z,4.60
2017-04-28T01:43:41.541Z,4.70
2017-04-28T01:46:08.649Z,4.70
2017-04-28T01:48:35.737Z,4.60
2017-04-28T01:51:02.808Z,4.70
2017-04-28T01:53:29.856Z,4.70
2017-04-28T01:55:56.936Z,4.70
2017-04-28T01:58:24.780Z,4.70
2017-04-28T02:00:51.859Z,4.70
2017-04-28T02:03:19.660Z,4.60
2017-04-28T02:05:46.704Z,4.60
2017-04-28T02:08:13.751Z,4.60
2017-04-28T02:10:40.816Z,4.60
2017-04-28T02:13:07.879Z,4.60
2017-04-28T02:15:34.952Z,4.50
2017-04-28T02:18:02.050Z,4.50
2017-04-28T02:20:29.084Z,4.50
2017-04-28T02:22:56.175Z,4.50
2017-04-28T02:25:23.252Z,4.60
2017-04-28T02:27:50.317Z,4.60
2017-04-28T02:30:17.381Z,4.60
2017-04-28T02:32:44.411Z,4.60
2017-04-28T02:35:11.516Z,4.60
2017-04-28T02:37:38.561Z,4.50
2017-04-28T02:40:05.653Z,4.60
2017-04-28T02:42:32.759Z,4.50
2017-04-28T02:44:59.823Z,4.50
2017-04-28T02:47:26.885Z,4.50
2017-04-28T02:49:54.017Z,4.40
2017-04-28T02:52:21.140Z,4.40
2017-04-28T02:54:48.197Z,4.50
2017-04-28T02:57:15.257Z,4.50
2017-04-28T02:59:42.328Z,4.40
2017-04-28T03:02:09.740Z,4.40
2017-04-28T03:04:36.810Z,4.40
2017-04-28T03:07:03.921Z,4.40
2017-04-28T03:09:31.017Z,4.30
2017-04-28T03:11:58.073Z,4.30
2017-04-28T03:14:25.153Z,4.30
2017-04-28T03:16:52.212Z,4.30
2017-04-28T03:19:19.321Z,4.20
2017-04-28T03:21:46.400Z,4.20
2017-04-28T03:24:13.436Z,4.20
2017-04-28T03:26:40.501Z,4.20
2017-04-28T03:29:07.656Z,4.10
2017-04-28T03:31:34.704Z,4.20
2017-04-28T03:34:01.768Z,4.20
2017-04-28T03:36:28.803Z,4.20
2017-04-28T03:38:55.889Z,4.20
2017-04-28T03:41:22.945Z,4.20
2017-04-28T03:43:49.992Z,4.20
2017-04-28T03:46:17.024Z,4.20
2017-04-28T03:48:44.066Z,4.20
2017-04-28T03:51:11.165Z,4.20
2017-04-28T03:53:38.235Z,4.20
2017-04-28T03:56:05.457Z,4.20
2017-04-28T03:58:32.501Z,4.20
2017-04-28T04:00:59.543Z,4.10
2017-04-28T04:03:26.575Z,4.00
2017-04-28T04:05:54.374Z,4.00
2017-04-28T04:08:21.464Z,4.00
2017-04-28T04:10:48.515Z,4.00
2017-04-28T04:13:15.624Z,4.00
2017-04-28T04:15:42.705Z,4.00
2017-04-28T04:18:09.780Z,4.00
2017-04-28T04:20:36.860Z,4.00
2017-04-28T04:23:04.652Z,4.10
2017-04-28T04:25:31.761Z,4.20
2017-04-28T04:27:58.845Z,4.10
2017-04-28T04:30:25.939Z,4.10
2017-04-28T04:32:52.969Z,4.00
2017-04-28T04:35:20.098Z,4.10
2017-04-28T04:37:47.906Z,4.10
2017-04-28T04:40:14.980Z,4.00
2017-04-28T04:42:42.120Z,4.00
2017-04-28T04:45:09.164Z,4.10
2017-04-28T04:47:36.298Z,4.10
2017-04-28T04:50:03.390Z,4.10
2017-04-28T04:52:30.455Z,4.10
2017-04-28T04:54:57.568Z,4.10
2017-04-28T04:57:24.713Z,4.00
2017-04-28T04:59:51.864Z,4.00
2017-04-28T05:02:19.787Z,4.00
2017-04-28T05:04:46.869Z,4.00
2017-04-28T05:07:13.963Z,4.00
2017-04-28T05:09:41.020Z,4.00
2017-04-28T05:12:08.080Z,4.00
2017-04-28T05:14:35.167Z,4.10
2017-04-28T05:17:02.201Z,4.10
2017-04-28T05:19:29.227Z,4.10
2017-04-28T05:21:56.295Z,4.20
2017-04-28T05:24:23.529Z,4.20
2017-04-28T05:26:50.588Z,4.20
2017-04-28T05:29:17.684Z,4.20
2017-04-28T05:31:44.768Z,4.30
2017-04-28T05:34:12.599Z,4.30
2017-04-28T05:36:39.857Z,4.30
2017-04-28T05:39:06.904Z,4.40
2017-04-28T05:41:33.953Z,4.40
2017-04-28T05:44:01.024Z,4.50
2017-04-28T05:46:28.122Z,4.40
2017-04-28T05:48:55.916Z,4.40
2017-04-28T05:51:22.988Z,4.50
2017-04-28T05:53:50.041Z,4.50
2017-04-28T05:56:17.102Z,4.50
2017-04-28T05:58:44.160Z,4.70
2017-04-28T06:01:11.247Z,4.80
2017-04-28T06:03:39.080Z,4.80
2017-04-28T06:06:06.145Z,4.80
2017-04-28T06:08:33.271Z,4.80
2017-04-28T06:11:00.358Z,4.80
2017-04-28T06:13:27.919Z,4.90
2017-04-28T06:15:54.996Z,4.90
2017-04-28T06:18:22.845Z,4.80
2017-04-28T06:20:50.067Z,4.80
2017-04-28T06:23:17.162Z,4.90
2017-04-28T06:25:44.224Z,4.90
2017-04-28T06:28:11.275Z,4.90
2017-04-28T06:30:38.369Z,5.00
2017-04-28T06:33:05.434Z,4.90
2017-04-28T06:35:32.518Z,4.70
2017-04-28T06:37:59.643Z,4.80
2017-04-28T06:40:26.711Z,4.90
2017-04-28T06:42:53.776Z,5.00
2017-04-28T06:45:20.821Z,5.00
2017-04-28T06:47:47.934Z,5.00
2017-04-28T06:50:15.019Z,5.00
2017-04-28T06:52:42.173Z,5.10
2017-04-28T06:55:09.298Z,5.10
2017-04-28T06:57:36.437Z,5.20
2017-04-28T07:00:05.290Z,5.10
2017-04-28T07:02:32.357Z,5.10
2017-04-28T07:04:59.486Z,5.10
2017-04-28T07:07:26.545Z,5.10
2017-04-28T07:09:53.594Z,5.10
2017-04-28T07:12:20.628Z,5.10
2017-04-28T07:14:47.704Z,4.90
2017-04-28T07:17:14.793Z,4.90
2017-04-28T07:19:42.629Z,4.90
2017-04-28T07:22:09.768Z,5.00
2017-04-28T07:24:36.829Z,5.10
2017-04-28T07:27:03.889Z,5.20
2017-04-28T07:29:30.964Z,5.30
2017-04-28T07:31:58.008Z,5.50
2017-04-28T07:34:25.064Z,5.50
2017-04-28T07:36:52.137Z,5.80
2017-04-28T07:39:19.216Z,5.90
2017-04-28T07:41:46.988Z,6.00
2017-04-28T07:44:14.100Z,6.00
2017-04-28T07:46:41.192Z,6.00
2017-04-28T07:49:08.988Z,5.80
2017-04-28T07:51:36.092Z,5.90
2017-04-28T07:54:03.140Z,6.00
2017-04-28T07:56:30.205Z,5.90
2017-04-28T07:58:58.011Z,6.00
2017-04-28T08:01:25.116Z,6.00
2017-04-28T08:03:52.275Z,5.80
2017-04-28T08:06:19.395Z,5.70
2017-04-28T08:08:46.484Z,5.70
2017-04-28T08:11:14.290Z,5.80
2017-04-28T08:13:41.384Z,5.80
2017-04-28T08:16:15.524Z,5.80
2017-04-28T08:18:42.597Z,5.80
2017-04-28T08:21:10.463Z,5.80
2017-04-28T08:23:38.320Z,5.90
2017-04-28T08:26:05.509Z,6.20
2017-04-28T08:28:32.567Z,6.30
2017-04-28T08:30:59.637Z,6.40
2017-04-28T08:33:26.775Z,6.40
2017-04-28T08:35:53.895Z,6.40
2017-04-28T08:38:20.979Z,6.30
2017-04-28T08:40:48.103Z,6.00
2017-04-28T08:43:15.188Z,5.90
2017-04-28T08:45:42.247Z,5.90
2017-04-28T08:48:09.295Z,5.90
2017-04-28T08:50:36.395Z,6.00
2017-04-28T08:53:03.659Z,6.20
2017-04-28T08:55:30.749Z,6.10
2017-04-28T08:57:58.582Z,6.10
2017-04-28T09:00:25.660Z,6.30
2017-04-28T09:02:53.860Z,6.30
2017-04-28T09:05:21.680Z,6.10
2017-04-28T09:07:48.741Z,6.20
2017-04-28T09:10:15.799Z,6.00
2017-04-28T09:12:42.915Z,5.90
2017-04-28T09:15:09.968Z,5.80
2017-04-28T09:17:37.019Z,5.80
2017-04-28T09:20:04.096Z,5.90
2017-04-28T09:22:31.219Z,6.20
2017-04-28T09:24:58.313Z,6.50
2017-04-28T09:27:25.415Z,6.80
2017-04-28T09:29:52.475Z,7.00
2017-04-28T09:32:19.532Z,7.20
2017-04-28T09:34:46.569Z,7.50
2017-04-28T09:37:14.384Z,7.50
2017-04-28T09:39:41.452Z,7.50
2017-04-28T09:42:08.499Z,7.30
2017-04-28T09:44:35.600Z,7.10
2017-04-28T09:47:03.515Z,7.10
2017-04-28T09:49:30.597Z,7.20
2017-04-28T09:51:57.814Z,7.30
2017-04-28T09:54:24.885Z,7.40
2017-04-28T09:56:51.948Z,7.80
2017-04-28T09:59:19.085Z,8.30
2017-04-28T10:01:46.181Z,8.60
2017-04-28T10:04:13.292Z,9.30
2017-04-28T10:06:40.398Z,9.80
2017-04-28T10:09:08.818Z,9.90
2017-04-28T10:11:35.895Z,9.50
2017-04-28T10:14:04.151Z,8.90
2017-04-28T10:16:31.222Z,8.60
2017-04-28T10:18:58.305Z,8.10
2017-04-28T10:21:25.536Z,7.80
2017-04-28T10:23:52.585Z,7.60
2017-04-28T10:26:19.728Z,7.50
2017-04-28T10:28:46.856Z,7.50
2017-04-28T10:31:14.117Z,7.30
2017-04-28T10:33:41.168Z,6.70
2017-04-28T10:36:08.251Z,6.30
2017-04-28T10:38:35.308Z,6.20
2017-04-28T10:41:02.416Z,6.40
2017-04-28T10:43:30.208Z,6.70
2017-04-28T10:45:57.286Z,7.10
2017-04-28T10:48:24.320Z,7.40
2017-04-28T10:50:51.628Z,7.80
2017-04-28T10:53:18.697Z,8.10
2017-04-28T10:55:46.509Z,8.30
2017-04-28T10:58:13.604Z,8.50
2017-04-28T11:00:40.837Z,8.40
2017-04-28T11:03:07.970Z,8.30
2017-04-28T11:05:35.042Z,8.20
2017-04-28T11:08:02.237Z,8.10
2017-04-28T11:10:29.311Z,7.70
2017-04-28T11:12:57.157Z,7.20
2017-04-28T11:15:24.202Z,6.60
2017-04-28T11:17:51.260Z,6.30
2017-04-28T11:20:18.356Z,6.50
2017-04-28T11:22:45.937Z,6.70
2017-04-28T11:25:13.024Z,6.80
2017-04-28T11:27:40.076Z,6.90
2017-04-28T11:30:07.141Z,6.90
2017-04-28T11:32:34.252Z,7.20
2017-04-28T11:35:01.342Z,7.50
2017-04-28T11:37:28.411Z,7.60
2017-04-28T11:39:55.669Z,7.60
2017-04-28T11:42:22.747Z,7.70
2017-04-28T11:44:49.815Z,7.80
2017-04-28T11:47:17.144Z,7.80
2017-04-28T11:49:45.025Z,7.60
2017-04-28T11:52:12.108Z,7.60
2017-04-28T11:54:39.177Z,7.60
2017-04-28T11:57:06.272Z,7.50
2017-04-28T11:59:34.061Z,7.70
2017-04-28T12:02:01.401Z,7.70
2017-04-28T12:04:29.317Z,7.20
2017-04-28T12:06:56.388Z,6.90
2017-04-28T12:09:23.489Z,6.60
2017-04-28T12:11:51.296Z,6.40
2017-04-28T12:14:18.355Z,6.40
2017-04-28T12:16:45.450Z,6.10
2017-04-28T12:19:12.595Z,6.00
2017-04-28T12:21:39.712Z,6.20
2017-04-28T12:24:06.804Z,6.30
2017-04-28T12:26:33.942Z,6.30
2017-04-28T12:29:01.021Z,6.20
2017-04-28T12:31:28.108Z,6.20
2017-04-28T12:33:55.170Z,6.30
2017-04-28T12:36:22.257Z,6.30
2017-04-28T12:38:49.357Z,6.30
2017-04-28T12:41:18.211Z,6.40
2017-04-28T12:43:46.120Z,6.40
2017-04-28T12:46:14.039Z,6.50
2017-04-28T12:48:42.082Z,6.70
2017-04-28T12:51:09.908Z,6.80
2017-04-28T12:53:37.722Z,7.10
2017-04-28T12:56:05.563Z,7.10
2017-04-28T12:58:33.531Z,7.30
2017-04-28T13:01:01.426Z,7.60
2017-04-28T13:03:29.318Z,7.80
2017-04-28T13:05:57.248Z,7.70
2017-04-28T13:08:25.083Z,7.90
2017-04-28T13:10:52.867Z,8.20
2017-04-28T13:13:20.810Z,8.40
2017-04-28T13:15:48.587Z,8.70
2017-04-28T13:18:15.966Z,8.80
2017-04-28T13:20:43.468Z,8.80
2017-04-28T13:23:10.850Z,9.30
2017-04-28T13:25:38.206Z,10.00
2017-04-28T13:28:05.574Z,10.10
2017-04-28T13:30:32.801Z,10.90
2017-04-28T13:33:00.339Z,11.70
2017-04-28T13:35:27.633Z,12.60
2017-04-28T13:37:55.088Z,13.70
2017-04-28T13:40:22.561Z,13.20
2017-04-28T13:42:50.140Z,13.30
2017-04-28T13:45:17.610Z,13.50
2017-04-28T13:47:44.783Z,13.80
2017-04-28T13:50:12.163Z,15.10
2017-04-28T13:52:39.387Z,15.80
2017-04-28T13:55:06.556Z,16.50
2017-04-28T13:57:34.086Z,15.90
2017-04-28T14:00:01.204Z,15.70
2017-04-28T14:02:28.358Z,15.80
2017-04-28T14:04:55.514Z,16.30
2017-04-28T14:07:22.612Z,16.20
2017-04-28T14:09:49.844Z,16.20
2017-04-28T14:12:16.881Z,15.70
2017-04-28T14:14:44.012Z,13.70
2017-04-28T14:17:11.069Z,13.30
2017-04-28T14:19:38.249Z,14.10
2017-04-28T14:22:05.348Z,14.10
2017-04-28T14:24:33.515Z,13.90
2017-04-28T14:27:00.623Z,14.30
2017-04-28T14:29:27.704Z,15.90
2017-04-28T14:31:54.768Z,17.40
2017-04-28T14:34:21.839Z,17.70
2017-04-28T14:36:48.916Z,18.50
2017-04-28T14:39:16.085Z,19.30
2017-04-28T14:41:43.169Z,19.70
2017-04-28T14:44:10.240Z,19.10
2017-04-28T14:46:37.352Z,18.40
2017-04-28T14:49:04.480Z,18.70
2017-04-28T14:51:31.564Z,18.10
2017-04-28T14:53:58.667Z,17.60
2017-04-28T14:56:26.489Z,15.90
2017-04-28T14:58:53.579Z,14.50
2017-04-28T15:01:20.636Z,13.60
2017-04-28T15:03:48.439Z,13.00
2017-04-28T15:06:15.578Z,14.50
2017-04-28T15:08:42.641Z,15.50
2017-04-28T15:11:09.776Z,15.10
2017-04-28T15:13:37.662Z,14.40
2017-04-28T15:16:04.851Z,14.00
2017-04-28T15:18:31.989Z,13.70
2017-04-28T15:20:59.081Z,13.60
2017-04-28T15:23:26.262Z,13.00
2017-04-28T15:25:54.170Z,12.70
2017-04-28T15:28:21.249Z,12.00
2017-04-28T15:30:48.363Z,11.40
2017-04-28T15:33:16.253Z,11.10
2017-04-28T15:35:43.325Z,10.60
2017-04-28T15:38:10.390Z,10.30
2017-04-28T15:40:37.487Z,10.00
2017-04-28T15:43:05.329Z,9.80
2017-04-28T15:45:32.392Z,9.60
2017-04-28T15:47:59.474Z,9.60
2017-04-28T15:50:26.617Z,9.90
2017-04-28T15:52:54.458Z,10.30
2017-04-28T15:55:21.812Z,11.40
2017-04-28T15:57:48.885Z,13.10
2017-04-28T16:00:16.087Z,14.00
2017-04-28T16:02:43.186Z,13.70
2017-04-28T16:05:28.647Z,13.30
2017-04-28T16:07:56.123Z,13.10
2017-04-28T16:10:23.391Z,12.70
2017-04-28T16:12:50.650Z,12.90
2017-04-28T16:15:17.909Z,12.40
2017-04-28T16:17:45.169Z,12.10
2017-04-28T16:20:12.528Z,11.90
2017-04-28T16:22:39.877Z,11.80
2017-04-28T16:25:07.249Z,11.60
2017-04-28T16:27:34.565Z,11.30
2017-04-28T16:30:02.070Z,10.90
2017-04-28T16:32:29.361Z,10.30
2017-04-28T16:34:56.688Z,10.00
2017-04-28T16:37:24.734Z,9.70
2017-04-28T16:39:52.048Z,9.70
2017-04-28T16:42:19.579Z,9.70
2017-04-28T16:44:46.903Z,9.80
2017-04-28T16:47:14.207Z,9.80
2017-04-28T16:49:41.525Z,9.70
2017-04-28T16:52:08.847Z,9.30
2017-04-28T16:54:36.280Z,9.10
2017-04-28T16:57:03.609Z,8.90
2017-04-28T16:59:30.936Z,8.80
2017-04-28T17:01:58.249Z,8.70
2017-04-28T17:04:25.515Z,8.60
2017-04-28T17:06:53.610Z,8.50
2017-04-28T17:09:21.706Z,8.60
2017-04-28T17:11:48.995Z,8.60
2017-04-28T17:14:16.285Z,8.60
2017-04-28T17:16:43.588Z,8.40
2017-04-28T17:19:10.904Z,8.30
2017-04-28T17:21:38.216Z,8.30
2017-04-28T17:24:05.525Z,8.30
2017-04-28T17:26:32.827Z,8.30
2017-04-28T17:29:00.136Z,8.30
2017-04-28T17:31:27.487Z,8.30
2017-04-28T17:33:54.857Z,8.30
2017-04-28T17:36:22.154Z,8.20
2017-04-28T17:38:49.448Z,8.20
2017-04-28T17:41:16.766Z,8.30
2017-04-28T17:43:44.080Z,8.30
2017-04-28T17:46:11.381Z,8.30
2017-04-28T17:48:39.456Z,8.40
2017-04-28T17:51:07.496Z,8.40
2017-04-28T17:53:34.772Z,8.40
2017-04-28T17:58:46.747Z,8.40
2017-04-28T18:01:14.082Z,8.40
2017-04-28T18:03:41.363Z,8.50
2017-04-28T18:06:08.659Z,8.50
2017-04-28T18:08:36.047Z,8.50
2017-04-28T18:11:03.753Z,8.50
2017-04-28T18:13:31.056Z,8.50
2017-04-28T18:15:59.196Z,8.40
2017-04-28T18:18:26.517Z,8.30
2017-04-28T18:20:54.811Z,8.20
2017-04-28T18:23:23.014Z,8.10
2017-04-28T18:25:50.410Z,8.00
2017-04-28T18:28:17.718Z,7.80
2017-04-28T18:30:52.003Z,7.70
2017-04-28T18:33:20.008Z,7.50
2017-04-28T18:35:47.328Z,7.50
2017-04-28T18:38:15.327Z,7.30
2017-04-28T18:40:42.631Z,7.10
2017-04-28T18:43:09.942Z,7.10
2017-04-28T18:45:37.276Z,6.90
2017-04-28T18:48:05.366Z,6.80
2017-04-28T18:50:32.696Z,6.70
2017-04-28T18:53:00.061Z,6.60
2017-04-28T18:55:27.400Z,6.50
2017-04-28T18:57:54.848Z,6.40
2017-04-28T19:00:22.563Z,6.20
2017-04-28T19:02:50.621Z,6.20
2017-04-28T19:05:18.027Z,6.10
2017-04-28T19:07:45.456Z,6.00
2017-04-28T19:10:12.897Z,5.90
2017-04-28T19:12:40.198Z,5.90
2017-04-28T19:15:07.637Z,5.80
2017-04-28T19:17:35.740Z,5.70
2017-04-28T19:20:03.076Z,5.60
2017-04-28T19:22:31.088Z,5.60
2017-04-28T19:24:58.410Z,5.50
2017-04-28T19:27:26.479Z,5.50
2017-04-28T19:29:53.812Z,5.40
2017-04-28T19:32:21.164Z,5.40
2017-04-28T19:34:48.510Z,5.40
2017-04-28T19:37:15.829Z,5.30
2017-04-28T19:39:43.963Z,5.20
2017-04-28T19:42:11.280Z,5.20
2017-04-28T19:44:38.541Z,5.20
2017-04-28T19:47:05.924Z,5.00
2017-04-28T19:49:33.436Z,4.90
2017-04-28T19:52:00.725Z,4.80
2017-04-28T19:54:28.085Z,4.60
2017-04-28T19:56:55.538Z,4.30
2017-04-28T19:59:23.568Z,4.10
2017-04-28T20:01:50.846Z,4.00
2017-04-28T20:04:18.297Z,4.00
2017-04-28T20:06:45.643Z,4.00
2017-04-28T20:09:13.022Z,3.90
2017-04-28T20:11:40.361Z,3.90
2017-04-28T20:14:07.659Z,4.00
2017-04-28T20:16:35.760Z,3.90
2017-04-28T20:19:03.064Z,4.00
2017-04-28T20:21:30.414Z,4.10
2017-04-28T20:23:57.721Z,4.10
2017-04-28T20:26:25.804Z,4.00
2017-04-28T20:28:53.936Z,3.90
2017-04-28T20:31:21.266Z,3.90
2017-04-28T20:33:48.634Z,3.90
2017-04-28T20:36:15.987Z,4.00
2017-04-28T20:38:43.354Z,4.00
2017-04-28T20:41:10.662Z,4.00
2017-04-28T20:43:37.997Z,3.90
2017-04-28T20:46:05.325Z,4.00
2017-04-28T20:48:32.648Z,4.10
2017-04-28T20:51:00.789Z,4.30
2017-04-28T20:53:28.393Z,4.30
2017-04-28T20:55:56.450Z,4.30
2017-04-28T20:58:23.748Z,4.40
2017-04-28T21:00:51.062Z,4.50
2017-04-28T21:03:18.342Z,4.50
2017-04-28T21:05:46.408Z,4.50
2017-04-28T21:08:13.729Z,4.30
2017-04-28T21:10:41.015Z,4.30
2017-04-28T21:13:08.368Z,4.30
2017-04-28T21:15:35.692Z,4.30
2017-04-28T21:18:03.042Z,4.50
2017-04-28T21:20:30.418Z,4.60
2017-04-28T21:22:57.778Z,4.60
2017-04-28T21:25:32.030Z,4.60
2017-04-28T21:27:59.384Z,4.60
2017-04-28T21:30:26.835Z,4.50
2017-04-28T21:32:54.195Z,4.40
2017-04-28T21:35:21.671Z,4.40
2017-04-28T21:37:49.029Z,4.40
2017-04-28T21:40:16.414Z,4.30
2017-04-28T21:42:43.752Z,4.30
2017-04-28T21:45:11.232Z,4.30
2017-04-28T21:47:38.558Z,4.40
2017-04-28T21:50:05.935Z,4.40
2017-04-28T21:52:33.242Z,4.40
2017-04-28T21:55:00.598Z,4.40
2017-04-28T21:57:27.928Z,4.50
2017-04-28T21:59:55.346Z,4.40
2017-04-28T22:04:47.175Z,4.40
2017-04-28T22:07:14.549Z,4.50
2017-04-28T22:09:41.826Z,4.50
2017-04-28T22:12:09.187Z,4.60
2017-04-28T22:14:36.728Z,4.60
2017-04-28T22:17:19.898Z,4.60
2017-04-28T22:19:46.620Z,4.50
2017-04-28T22:22:13.947Z,4.50
2017-04-28T22:24:41.277Z,4.40
2017-04-28T22:27:08.603Z,4.20
2017-04-28T22:29:35.913Z,4.10
2017-04-28T22:32:03.253Z,4.10
2017-04-28T22:34:30.565Z,4.10
2017-04-28T22:36:57.949Z,4.10
2017-04-28T22:39:25.267Z,4.20
2017-04-28T22:41:52.563Z,4.20
2017-04-28T22:44:19.926Z,4.20
2017-04-28T22:46:47.224Z,4.00
2017-04-28T22:49:14.579Z,3.90
2017-04-28T22:51:41.930Z,3.90
2017-04-28T22:54:09.212Z,4.00
2017-04-28T22:56:36.552Z,3.90
2017-04-28T22:59:03.957Z,3.90
2017-04-28T23:01:31.270Z,3.90
2017-04-28T23:03:58.641Z,3.90
2017-04-28T23:06:26.018Z,3.80
2017-04-28T23:08:53.288Z,3.80
2017-04-28T23:11:20.583Z,3.70
2017-04-28T23:13:47.972Z,3.50
2017-04-28T23:16:15.244Z,3.40
2017-04-28T23:18:42.515Z,3.40
2017-04-28T23:21:09.888Z,3.40
2017-04-28T23:23:37.237Z,3.30
2017-04-28T23:26:04.563Z,3.30
2017-04-28T23:28:31.913Z,3.20
2017-04-28T23:30:59.213Z,3.20
2017-04-28T23:33:26.512Z,3.20
2017-04-28T23:35:53.799Z,3.10
2017-04-28T23:38:21.056Z,3.10
2017-04-28T23:40:48.393Z,3.10
2017-04-28T23:43:15.783Z,3.10
2017-04-28T23:45:43.248Z,3.00
2017-04-28T23:48:10.542Z,3.00
2017-04-28T23:50:37.900Z,3.10
2017-04-28T23:53:05.188Z,3.10
2017-04-28T23:55:32.511Z,3.10
2017-04-28T23:57:59.831Z,3.00
